createdAt,value
2022-09-16T00:02:23.796Z,17.30
2022-09-16T00:04:54.493Z,17.30
2022-09-16T00:07:23.494Z,17.20
2022-09-16T00:10:09.671Z,17.40
2022-09-16T00:12:42.240Z,17.40
2022-09-16T00:15:12.540Z,17.40
2022-09-16T00:17:41.596Z,17.40
2022-09-16T00:20:11.220Z,17.40
2022-09-16T00:22:40.230Z,17.40
2022-09-16T00:25:10.179Z,17.30
2022-09-16T00:27:40.541Z,17.30
2022-09-16T00:30:11.092Z,17.30
2022-09-16T00:32:40.451Z,17.30
2022-09-16T00:35:09.775Z,17.30
2022-09-16T00:37:38.879Z,17.30
2022-09-16T00:40:08.794Z,17.30
2022-09-16T00:42:42.333Z,17.30
2022-09-16T00:45:17.914Z,17.30
2022-09-16T00:47:51.143Z,17.30
2022-09-16T00:50:33.407Z,17.20
2022-09-16T00:53:03.085Z,17.20
2022-09-16T00:55:35.446Z,17.30
2022-09-16T00:58:13.175Z,17.30
2022-09-16T01:00:42.660Z,17.40
2022-09-16T01:03:11.883Z,17.40
2022-09-16T01:05:41.375Z,17.30
2022-09-16T01:08:10.656Z,17.30
2022-09-16T01:10:43.820Z,17.30
2022-09-16T01:13:16.921Z,17.30
2022-09-16T01:15:56.701Z,17.10
2022-09-16T01:18:33.638Z,17.10
2022-09-16T01:21:27.559Z,17.10
2022-09-16T01:24:31.233Z,17.10
2022-09-16T01:27:33.358Z,17.20
2022-09-16T01:30:48.043Z,17.00
2022-09-16T01:33:31.544Z,17.10
2022-09-16T01:36:30.795Z,17.10
2022-09-16T01:39:18.235Z,17.20
2022-09-16T01:42:05.628Z,17.10
2022-09-16T01:44:45.963Z,17.00
2022-09-16T01:47:23.126Z,16.90
2022-09-16T01:50:03.209Z,16.90
2022-09-16T01:52:45.686Z,16.80
2022-09-16T01:55:21.717Z,16.90
2022-09-16T01:57:54.830Z,16.90
2022-09-16T02:00:24.568Z,16.80
2022-09-16T02:03:00.353Z,16.80
2022-09-16T02:05:34.806Z,16.70
2022-09-16T02:08:09.654Z,16.80
2022-09-16T02:10:43.561Z,16.70
2022-09-16T02:13:16.389Z,16.70
2022-09-16T02:15:48.880Z,16.60
2022-09-16T02:18:26.156Z,16.60
2022-09-16T02:20:59.010Z,16.60
2022-09-16T02:23:33.629Z,16.60
2022-09-16T02:26:06.605Z,16.60
2022-09-16T02:28:40.612Z,16.60
2022-09-16T02:31:12.589Z,16.60
2022-09-16T02:33:49.079Z,16.70
2022-09-16T02:36:23.106Z,16.70
2022-09-16T02:38:55.564Z,16.70
2022-09-16T02:41:25.172Z,16.70
2022-09-16T02:43:54.722Z,16.70
2022-09-16T02:46:33.948Z,16.70
2022-09-16T02:49:14.016Z,16.70
2022-09-16T02:51:53.643Z,16.60
2022-09-16T02:54:28.450Z,16.60
2022-09-16T02:56:58.384Z,16.60
2022-09-16T02:59:27.462Z,16.70
2022-09-16T03:01:56.905Z,16.70
2022-09-16T03:04:27.262Z,16.60
2022-09-16T03:06:56.397Z,16.70
2022-09-16T03:09:25.939Z,16.70
2022-09-16T03:12:12.710Z,16.70
2022-09-16T03:15:32.119Z,16.50
2022-09-16T03:18:29.862Z,16.50
2022-09-16T03:21:09.761Z,16.50
2022-09-16T03:23:50.761Z,16.50
2022-09-16T03:26:29.006Z,16.50
2022-09-16T03:29:12.346Z,16.60
2022-09-16T03:31:49.306Z,16.60
2022-09-16T03:34:22.812Z,16.60
2022-09-16T03:36:58.630Z,16.50
2022-09-16T03:39:27.701Z,16.50
2022-09-16T03:42:01.303Z,16.50
2022-09-16T03:44:35.740Z,16.60
2022-09-16T03:47:05.546Z,16.60
2022-09-16T03:49:34.690Z,16.60
2022-09-16T03:52:07.088Z,16.60
2022-09-16T03:54:37.121Z,16.60
2022-09-16T03:57:07.025Z,16.70
2022-09-16T03:59:35.964Z,16.60
2022-09-16T04:02:05.351Z,16.60
2022-09-16T04:04:34.820Z,16.60
2022-09-16T04:07:05.866Z,16.60
2022-09-16T04:09:37.264Z,16.70
2022-09-16T04:12:07.773Z,16.70
2022-09-16T04:14:37.218Z,16.80
2022-09-16T04:17:06.764Z,16.80
2022-09-16T04:19:35.803Z,16.90
2022-09-16T04:22:06.197Z,16.80
2022-09-16T04:24:38.581Z,16.90
2022-09-16T04:27:07.977Z,16.90
2022-09-16T04:29:37.140Z,16.90
2022-09-16T04:32:06.484Z,16.90
2022-09-16T04:34:35.530Z,17.00
2022-09-16T04:37:05.926Z,17.00
2022-09-16T04:39:35.081Z,17.00
2022-09-16T04:42:05.455Z,17.00
2022-09-16T04:44:34.436Z,17.00
2022-09-16T04:47:03.388Z,16.90
2022-09-16T04:49:32.381Z,16.90
2022-09-16T04:52:01.360Z,16.80
2022-09-16T04:54:31.656Z,16.80
2022-09-16T04:57:01.587Z,16.80
2022-09-16T04:59:31.201Z,16.80
2022-09-16T05:02:01.391Z,16.70
2022-09-16T05:04:30.684Z,16.80
2022-09-16T05:06:59.824Z,16.80
2022-09-16T05:09:28.978Z,16.80
2022-09-16T05:11:59.596Z,16.80
2022-09-16T05:14:29.267Z,16.80
2022-09-16T05:16:58.497Z,16.80
2022-09-16T05:19:27.790Z,17.00
2022-09-16T05:21:57.476Z,16.80
2022-09-16T05:24:26.954Z,16.80
2022-09-16T05:26:56.330Z,16.80
2022-09-16T05:29:26.841Z,16.80
2022-09-16T05:31:55.834Z,16.90
2022-09-16T05:34:28.621Z,16.90
2022-09-16T05:36:57.856Z,16.90
2022-09-16T05:39:27.207Z,16.90
2022-09-16T05:41:58.751Z,16.90
2022-09-16T05:44:30.035Z,16.90
2022-09-16T05:46:59.184Z,16.90
2022-09-16T05:49:28.223Z,16.80
2022-09-16T05:51:57.244Z,16.80
2022-09-16T05:54:26.242Z,16.80
2022-09-16T05:56:55.904Z,16.80
2022-09-16T05:59:25.044Z,16.80
2022-09-16T06:01:55.507Z,16.90
2022-09-16T06:04:26.558Z,16.90
2022-09-16T06:06:55.696Z,16.80
2022-09-16T06:09:26.609Z,16.90
2022-09-16T06:12:01.677Z,16.80
2022-09-16T06:14:32.213Z,16.80
2022-09-16T06:17:02.767Z,16.70
2022-09-16T06:19:31.779Z,16.80
2022-09-16T06:22:00.756Z,16.70
2022-09-16T06:24:29.817Z,16.70
2022-09-16T06:26:58.935Z,16.70
2022-09-16T06:29:28.190Z,16.60
2022-09-16T06:31:57.215Z,16.60
2022-09-16T06:34:28.770Z,16.60
2022-09-16T06:36:58.013Z,16.60
2022-09-16T06:39:27.010Z,16.60
2022-09-16T06:41:56.099Z,16.60
2022-09-16T06:44:34.075Z,16.60
2022-09-16T06:47:03.024Z,16.60
2022-09-16T06:49:33.369Z,16.60
2022-09-16T06:52:02.536Z,16.50
2022-09-16T06:54:31.911Z,16.40
2022-09-16T06:57:01.476Z,16.20
2022-09-16T06:59:31.281Z,16.10
2022-09-16T07:02:00.256Z,15.90
2022-09-16T07:04:29.295Z,15.60
2022-09-16T07:07:15.806Z,15.40
2022-09-16T07:09:44.915Z,15.10
2022-09-16T07:12:18.790Z,15.00
2022-09-16T07:14:48.703Z,15.00
2022-09-16T07:17:17.735Z,14.90
2022-09-16T07:19:47.550Z,15.00
2022-09-16T07:22:18.003Z,15.00
2022-09-16T07:24:47.031Z,15.10
2022-09-16T07:27:15.965Z,15.20
2022-09-16T07:29:44.931Z,15.30
2022-09-16T07:32:13.875Z,15.40
2022-09-16T07:34:42.850Z,15.50
2022-09-16T07:37:12.709Z,15.50
2022-09-16T07:39:43.036Z,15.50
2022-09-16T07:42:11.986Z,15.50
2022-09-16T07:44:41.201Z,15.50
2022-09-16T07:47:10.185Z,15.60
2022-09-16T07:49:39.212Z,15.40
2022-09-16T07:52:08.297Z,15.50
2022-09-16T07:54:37.303Z,15.40
2022-09-16T07:57:07.892Z,15.40
2022-09-16T07:59:36.933Z,15.40
2022-09-16T08:02:06.167Z,15.40
2022-09-16T08:04:35.283Z,15.50
2022-09-16T08:07:04.441Z,15.60
2022-09-16T08:09:39.916Z,15.70
2022-09-16T08:12:14.592Z,15.80
2022-09-16T08:14:43.678Z,15.90
2022-09-16T08:17:12.740Z,16.00
2022-09-16T08:19:41.873Z,16.10
2022-09-16T08:22:11.039Z,16.10
2022-09-16T08:24:40.149Z,16.20
2022-09-16T08:27:09.170Z,16.30
2022-09-16T08:29:39.726Z,16.30
2022-09-16T08:32:08.876Z,16.40
2022-09-16T08:34:39.672Z,16.50
2022-09-16T08:37:09.136Z,16.50
2022-09-16T08:39:38.339Z,16.50
2022-09-16T08:42:31.771Z,16.50
2022-09-16T08:45:16.103Z,16.60
2022-09-16T08:48:07.916Z,16.50
2022-09-16T08:50:42.242Z,16.60
2022-09-16T08:53:18.769Z,16.50
2022-09-16T08:55:50.833Z,16.50
2022-09-16T08:58:22.408Z,16.60
2022-09-16T09:00:58.066Z,16.70
2022-09-16T09:03:38.389Z,16.60
2022-09-16T09:06:21.898Z,16.70
2022-09-16T09:09:02.374Z,16.80
2022-09-16T09:11:40.792Z,16.90
2022-09-16T09:14:29.875Z,16.80
2022-09-16T09:17:11.159Z,16.80
2022-09-16T09:19:57.893Z,16.90
2022-09-16T09:22:47.967Z,17.00
2022-09-16T09:25:28.394Z,17.00
2022-09-16T09:28:18.474Z,17.10
2022-09-16T09:31:01.166Z,17.10
2022-09-16T09:36:46.614Z,17.10
2022-09-16T09:39:51.731Z,17.20
2022-09-16T09:42:27.084Z,17.30
2022-09-16T09:45:03.816Z,17.30
2022-09-16T09:47:38.755Z,17.30
2022-09-16T09:50:19.885Z,17.30
2022-09-16T09:52:57.954Z,17.30
2022-09-16T09:55:33.466Z,17.30
2022-09-16T09:58:32.517Z,17.40
2022-09-16T10:01:01.655Z,17.50
2022-09-16T10:03:31.960Z,17.50
2022-09-16T10:06:02.748Z,17.50
2022-09-16T10:08:39.364Z,17.50
2022-09-16T10:11:18.569Z,17.50
2022-09-16T10:13:53.067Z,17.50
2022-09-16T10:16:27.801Z,17.30
2022-09-16T10:19:01.965Z,17.40
2022-09-16T10:21:46.042Z,17.30
2022-09-16T10:24:34.322Z,17.30
2022-09-16T10:27:20.484Z,17.30
2022-09-16T10:29:49.945Z,17.40
2022-09-16T10:32:20.606Z,17.40
2022-09-16T10:34:50.628Z,17.40
2022-09-16T10:37:21.880Z,17.40
2022-09-16T10:39:54.513Z,17.30
2022-09-16T10:42:25.597Z,17.20
2022-09-16T10:44:57.156Z,17.20
2022-09-16T10:47:29.421Z,17.10
2022-09-16T10:50:02.122Z,17.10
2022-09-16T10:52:41.684Z,17.00
2022-09-16T10:55:25.749Z,17.10
2022-09-16T10:57:55.847Z,17.10
2022-09-16T11:00:28.951Z,17.20
2022-09-16T11:03:52.844Z,17.20
2022-09-16T11:06:44.472Z,17.30
2022-09-16T11:09:24.824Z,17.30
2022-09-16T11:12:24.053Z,17.20
2022-09-16T11:15:05.104Z,17.00
2022-09-16T11:17:54.560Z,17.00
2022-09-16T11:20:47.951Z,17.00
2022-09-16T11:23:34.800Z,17.00
2022-09-16T11:26:15.006Z,17.10
2022-09-16T11:29:15.594Z,17.00
2022-09-16T11:31:54.473Z,16.90
2022-09-16T11:34:41.503Z,16.70
2022-09-16T11:37:19.455Z,16.70
2022-09-16T11:40:02.321Z,16.80
2022-09-16T11:42:38.892Z,16.80
2022-09-16T11:45:25.411Z,16.70
2022-09-16T11:48:17.097Z,16.70
2022-09-16T11:50:53.986Z,16.70
2022-09-16T11:53:46.650Z,16.80
2022-09-16T11:56:22.655Z,16.80
2022-09-16T11:58:57.627Z,16.80
2022-09-16T12:01:33.619Z,16.80
2022-09-16T12:04:12.217Z,16.90
2022-09-16T12:06:52.336Z,17.10
2022-09-16T12:09:29.421Z,17.20
2022-09-16T12:12:09.946Z,17.30
2022-09-16T12:14:44.721Z,17.40
2022-09-16T12:17:20.747Z,17.60
2022-09-16T12:19:55.542Z,17.60
2022-09-16T12:22:30.451Z,17.70
2022-09-16T12:25:05.257Z,17.80
2022-09-16T12:27:44.795Z,18.00
2022-09-16T12:30:19.428Z,18.00
2022-09-16T12:32:58.435Z,18.10
2022-09-16T12:35:33.308Z,18.10
2022-09-16T12:38:02.476Z,18.20
2022-09-16T12:40:44.141Z,18.30
2022-09-16T12:43:41.293Z,18.30
2022-09-16T12:46:59.454Z,18.40
2022-09-16T12:50:11.880Z,18.50
2022-09-16T12:53:17.713Z,18.40
2022-09-16T12:56:08.737Z,18.50
2022-09-16T12:59:40.745Z,18.60
2022-09-16T13:02:18.730Z,18.40
2022-09-16T13:04:52.973Z,18.40
2022-09-16T13:07:27.142Z,18.50
2022-09-16T13:10:04.915Z,18.50
2022-09-16T13:12:44.816Z,18.40
2022-09-16T13:15:26.967Z,18.50
2022-09-16T13:18:09.318Z,18.60
2022-09-16T13:20:42.622Z,18.30
2022-09-16T13:23:21.982Z,18.30
2022-09-16T13:25:58.663Z,18.20
2022-09-16T13:28:38.659Z,18.10
2022-09-16T13:31:19.873Z,18.10
2022-09-16T13:34:15.923Z,18.10
2022-09-16T13:36:45.005Z,18.20
2022-09-16T13:39:17.420Z,18.30
2022-09-16T13:41:48.872Z,18.40
2022-09-16T13:44:41.880Z,18.50
2022-09-16T13:47:20.632Z,18.50
2022-09-16T13:49:57.350Z,18.40
2022-09-16T13:52:31.151Z,18.50
2022-09-16T13:55:11.479Z,18.60
2022-09-16T13:57:54.907Z,18.50
2022-09-16T14:00:26.364Z,18.60
2022-09-16T14:03:45.950Z,18.50
2022-09-16T14:06:57.878Z,18.70
2022-09-16T14:09:45.475Z,18.60
2022-09-16T14:12:25.907Z,18.50
2022-09-16T14:15:00.058Z,18.40
2022-09-16T14:17:37.111Z,18.50
2022-09-16T14:20:07.531Z,18.60
2022-09-16T14:22:38.033Z,18.70
2022-09-16T14:25:32.703Z,18.40
2022-09-16T14:28:23.385Z,18.30
2022-09-16T14:30:56.611Z,18.40
2022-09-16T14:33:31.220Z,18.30
2022-09-16T14:36:02.519Z,18.30
2022-09-16T14:38:46.857Z,18.40
2022-09-16T14:41:25.389Z,18.40
2022-09-16T14:44:01.536Z,18.40
2022-09-16T14:46:31.259Z,18.40
2022-09-16T14:49:00.630Z,18.40
2022-09-16T14:51:29.717Z,18.40
2022-09-16T14:54:12.110Z,18.30
2022-09-16T14:56:41.806Z,18.40
2022-09-16T14:59:13.854Z,18.40
2022-09-16T15:01:43.420Z,18.40
2022-09-16T15:04:19.396Z,18.40
2022-09-16T15:07:00.728Z,18.40
2022-09-16T15:09:44.214Z,18.40
2022-09-16T15:12:26.226Z,18.50
2022-09-16T15:14:55.307Z,18.40
2022-09-16T15:17:27.663Z,18.30
2022-09-16T15:19:59.557Z,18.20
2022-09-16T15:22:29.470Z,18.30
2022-09-16T15:25:00.447Z,18.20
2022-09-16T15:27:32.291Z,18.10
2022-09-16T15:30:05.870Z,18.20
2022-09-16T15:32:45.582Z,18.00
2022-09-16T15:35:24.583Z,18.10
2022-09-16T15:37:55.472Z,18.20
2022-09-16T15:40:36.117Z,18.00
2022-09-16T15:43:18.497Z,18.10
2022-09-16T15:46:00.031Z,18.10
2022-09-16T15:48:34.971Z,18.00
2022-09-16T15:51:10.725Z,18.00
2022-09-16T15:53:44.595Z,17.90
2022-09-16T15:56:30.046Z,18.10
2022-09-16T15:59:03.094Z,17.90
2022-09-16T16:01:52.547Z,17.90
2022-09-16T16:04:31.104Z,17.80
2022-09-16T16:07:02.341Z,17.90
2022-09-16T16:09:43.761Z,17.90
2022-09-16T16:12:17.194Z,17.90
2022-09-16T16:14:46.903Z,18.00
2022-09-16T16:17:18.556Z,17.90
2022-09-16T16:19:50.083Z,17.90
2022-09-16T16:22:20.632Z,18.00
2022-09-16T16:24:49.892Z,18.00
2022-09-16T16:27:20.253Z,18.00
2022-09-16T16:29:49.330Z,18.00
2022-09-16T16:32:18.586Z,18.00
2022-09-16T16:34:50.610Z,18.00
2022-09-16T16:37:44.877Z,18.10
2022-09-16T16:40:12.191Z,18.00
2022-09-16T16:42:43.430Z,18.00
2022-09-16T16:45:14.053Z,17.90
2022-09-16T16:47:43.985Z,18.00
2022-09-16T16:50:15.428Z,17.70
2022-09-16T16:52:44.584Z,17.70
2022-09-16T16:55:17.027Z,17.70
2022-09-16T16:57:48.219Z,17.40
2022-09-16T17:00:18.739Z,17.40
2022-09-16T17:02:48.009Z,17.40
2022-09-16T17:05:17.262Z,17.40
2022-09-16T17:07:46.234Z,17.30
2022-09-16T17:10:15.626Z,17.10
2022-09-16T17:12:44.628Z,17.10
2022-09-16T17:15:15.254Z,16.90
2022-09-16T17:17:46.162Z,16.90
2022-09-16T17:20:15.406Z,16.90
2022-09-16T17:22:45.136Z,16.30
2022-09-16T17:25:17.017Z,15.90
2022-09-16T17:27:46.191Z,15.70
2022-09-16T17:30:16.842Z,15.70
2022-09-16T17:32:45.921Z,15.80
2022-09-16T17:35:15.443Z,15.90
2022-09-16T17:37:44.597Z,16.00
2022-09-16T17:40:13.783Z,16.00
2022-09-16T17:42:42.822Z,16.20
2022-09-16T17:45:12.691Z,16.30
2022-09-16T17:47:43.194Z,16.30
2022-09-16T17:50:12.181Z,16.30
2022-09-16T17:52:41.252Z,16.30
2022-09-16T17:55:10.674Z,16.10
2022-09-16T17:57:39.654Z,16.20
2022-09-16T18:00:10.381Z,16.30
2022-09-16T18:02:43.537Z,16.30
2022-09-16T18:05:12.707Z,16.20
2022-09-16T18:07:46.938Z,16.20
2022-09-16T18:10:16.419Z,16.30
2022-09-16T18:12:45.822Z,16.00
2022-09-16T18:15:14.951Z,16.40
2022-09-16T18:17:47.672Z,16.30
2022-09-16T18:20:17.083Z,16.30
2022-09-16T18:22:46.889Z,16.30
2022-09-16T18:25:16.271Z,16.40
2022-09-16T18:27:45.494Z,16.40
2022-09-16T18:30:15.215Z,16.40
2022-09-16T18:32:45.780Z,16.40
2022-09-16T18:35:15.035Z,16.40
2022-09-16T18:37:44.104Z,16.40
2022-09-16T18:40:13.594Z,16.40
2022-09-16T18:42:42.617Z,16.40
2022-09-16T18:45:12.125Z,16.30
2022-09-16T18:47:41.370Z,16.30
2022-09-16T18:50:12.405Z,16.30
2022-09-16T18:52:44.118Z,16.30
2022-09-16T18:55:16.463Z,16.30
2022-09-16T18:57:45.447Z,16.30
2022-09-16T19:00:15.257Z,16.30
2022-09-16T19:02:44.328Z,16.30
2022-09-16T19:05:15.269Z,16.30
2022-09-16T19:07:44.466Z,16.20
2022-09-16T19:10:13.511Z,16.20
2022-09-16T19:12:42.605Z,16.20
2022-09-16T19:15:12.316Z,16.20
2022-09-16T19:17:41.358Z,16.10
2022-09-16T19:20:11.293Z,16.10
2022-09-16T19:22:41.642Z,15.90
2022-09-16T19:25:10.723Z,15.80
2022-09-16T19:27:40.548Z,15.80
2022-09-16T19:30:21.513Z,15.80
2022-09-16T19:32:52.119Z,15.90
2022-09-16T19:35:23.534Z,15.90
2022-09-16T19:37:57.378Z,15.90
2022-09-16T19:40:27.323Z,15.70
2022-09-16T19:42:56.835Z,15.60
2022-09-16T19:45:27.990Z,15.40
2022-09-16T19:47:57.442Z,15.30
2022-09-16T19:50:26.475Z,15.20
2022-09-16T19:52:56.894Z,15.10
2022-09-16T19:55:25.956Z,15.10
2022-09-16T19:57:55.462Z,15.10
2022-09-16T20:00:36.716Z,15.10
2022-09-16T20:03:14.156Z,15.00
2022-09-16T20:05:43.191Z,15.00
2022-09-16T20:08:13.599Z,14.80
2022-09-16T20:10:42.623Z,14.60
2022-09-16T20:13:12.511Z,14.10
2022-09-16T20:15:41.499Z,14.10
2022-09-16T20:18:10.545Z,13.80
2022-09-16T20:20:39.567Z,13.90
2022-09-16T20:23:08.529Z,13.90
2022-09-16T20:25:38.861Z,13.80
2022-09-16T20:28:08.127Z,13.90
2022-09-16T20:30:37.590Z,14.00
2022-09-16T20:33:06.700Z,14.30
2022-09-16T20:35:35.792Z,14.10
2022-09-16T20:38:04.791Z,14.20
2022-09-16T20:40:33.856Z,14.40
2022-09-16T20:43:04.202Z,14.50
2022-09-16T20:45:33.262Z,14.40
2022-09-16T20:48:03.075Z,14.40
2022-09-16T20:50:32.142Z,14.40
2022-09-16T20:53:01.134Z,14.50
2022-09-16T20:55:30.277Z,14.50
2022-09-16T20:57:59.385Z,14.40
2022-09-16T21:00:31.210Z,14.50
2022-09-16T21:03:00.798Z,14.60
2022-09-16T21:05:29.938Z,14.60
2022-09-16T21:07:59.062Z,14.60
2022-09-16T21:10:28.079Z,14.60
2022-09-16T21:12:57.927Z,14.60
2022-09-16T21:15:26.998Z,14.50
2022-09-16T21:17:57.474Z,14.50
2022-09-16T21:20:26.622Z,14.60
2022-09-16T21:22:55.887Z,14.60
2022-09-16T21:25:24.954Z,14.60
2022-09-16T21:27:54.938Z,14.50
2022-09-16T21:30:24.032Z,14.40
2022-09-16T21:32:53.064Z,14.30
2022-09-16T21:35:27.237Z,14.20
2022-09-16T21:37:57.811Z,14.20
2022-09-16T21:40:27.021Z,14.20
2022-09-16T21:42:56.822Z,14.30
2022-09-16T21:45:27.112Z,14.20
2022-09-16T21:47:57.492Z,14.30
2022-09-16T21:50:28.104Z,14.10
2022-09-16T21:52:57.155Z,14.00
2022-09-16T21:55:26.192Z,14.10
2022-09-16T21:57:55.262Z,14.10
2022-09-16T22:00:24.331Z,14.20
2022-09-16T22:02:53.377Z,14.10
2022-09-16T22:05:22.536Z,14.20
2022-09-16T22:07:53.156Z,14.20
2022-09-16T22:10:22.394Z,13.90
2022-09-16T22:12:51.387Z,13.90
2022-09-16T22:15:20.775Z,13.90
2022-09-16T22:17:51.850Z,14.00
2022-09-16T22:20:24.234Z,14.10
2022-09-16T22:22:56.287Z,14.20
2022-09-16T22:25:25.394Z,14.20
2022-09-16T22:27:54.443Z,14.30
2022-09-16T22:30:23.536Z,14.20
2022-09-16T22:32:52.628Z,14.20
2022-09-16T22:35:21.868Z,14.30
2022-09-16T22:37:50.979Z,14.30
2022-09-16T22:40:21.927Z,14.30
2022-09-16T22:42:51.527Z,14.30
2022-09-16T22:45:20.812Z,14.20
2022-09-16T22:47:50.137Z,14.20
2022-09-16T22:50:19.732Z,14.00
2022-09-16T22:52:48.822Z,14.00
2022-09-16T22:55:18.108Z,13.80
2022-09-16T22:57:48.486Z,13.80
2022-09-16T23:00:17.757Z,13.80
2022-09-16T23:02:46.711Z,13.70
2022-09-16T23:05:16.005Z,13.60
2022-09-16T23:07:50.282Z,13.70
2022-09-16T23:10:19.227Z,13.70
2022-09-16T23:12:51.374Z,13.60
2022-09-16T23:15:20.463Z,13.70
2022-09-16T23:17:49.398Z,13.80
2022-09-16T23:20:18.504Z,13.80
2022-09-16T23:22:47.465Z,13.70
2022-09-16T23:25:16.723Z,13.80
2022-09-16T23:27:45.723Z,13.80
2022-09-16T23:30:16.566Z,13.80
2022-09-16T23:32:46.023Z,13.90
2022-09-16T23:35:17.219Z,13.80
2022-09-16T23:37:46.543Z,13.80
2022-09-16T23:40:16.285Z,13.90
2022-09-16T23:42:45.807Z,13.90
2022-09-16T23:45:16.534Z,13.70
2022-09-16T23:47:45.620Z,13.50
2022-09-16T23:50:14.728Z,13.40
2022-09-16T23:52:45.579Z,13.50
2022-09-16T23:55:14.779Z,13.50
2022-09-16T23:57:46.835Z,13.50
